Weather at Rukum Chaurjahari Airport

Public forecast

Using degrees Celsius for public forecast. Weather courtesy of forecast.io.

Closest aviation weather report (METAR) to Rukum Chaurjahari Airport

Report is more than 2 hours old.

Closest report is Gorakhpur Airport, 131.5 nm (243.5 km) SSE. Retrieved 2020/09/29 09:30 UTC (5 hours ago):

VEGK 290930Z 27004KT 6000 FEW030 33/26 Q1003 NOSIG

Closest aviation forecast (TAF) to Rukum Chaurjahari Airport

Forecast is more than 6 hours old.

Closest forecast is Gorakhpur Airport, 131.5 nm (243.5 km) SSE. Retrieved 2020/09/29 06:30 UTC (8 hours ago):

TAF VEGK 290330Z 2906/2918 29005KT 6000 SCT025 BECMG 2912/2914 VRB02KT 5000 BR FEW025